Time;durP1;ratioP1;P1;durP2;ratioP2;P2;SDS_P1;SDS_P2;PMS_P1;PMS_P2;Temp;Humidity;BMP_temperature;BMP_pressure;BME280_temperature;BME280_humidity;BME280_pressure;Samples;Min_cycle;Max_cycle;Signal;HPM_P1;HPM_P2
2021/04/17 00:02:18;;;;;;;7.63;3.70;;;7.90;99.90;;;;;;5096119;28;20946;-69
2021/04/17 00:04:44;;;;;;;6.40;4.40;;;8.00;99.90;;;;;;5095832;28;20191;-69
2021/04/17 00:07:11;;;;;;;8.03;3.97;;;7.90;99.90;;;;;;5095983;28;20567;-69
2021/04/17 00:09:36;;;;;;;4.50;3.50;;;7.90;99.90;;;;;;5096444;28;20406;-69
2021/04/17 00:12:22;;;;;;;7.17;4.70;;;8.00;99.90;;;;;;5095895;28;20460;-69
2021/04/17 00:14:51;;;;;;;7.60;3.90;;;8.00;99.90;;;;;;5095143;28;20440;-70
2021/04/17 00:17:19;;;;;;;4.97;4.10;;;8.00;99.90;;;;;;5096008;28;20754;-69
2021/04/17 00:19:47;;;;;;;5.97;4.30;;;8.00;99.90;;;;;;5096040;28;20397;-69
2021/04/17 00:22:12;;;;;;;5.73;4.17;;;8.00;99.90;;;;;;5095798;28;20402;-69
2021/04/17 00:24:38;;;;;;;7.50;4.33;;;8.00;99.90;;;;;;5096139;28;20516;-69
2021/04/17 00:27:06;;;;;;;6.17;4.10;;;8.00;99.90;;;;;;5096019;28;20174;-69
2021/04/17 00:29:32;;;;;;;7.07;3.67;;;8.10;99.90;;;;;;5097086;28;20172;-68
2021/04/17 00:31:59;;;;;;;6.30;4.50;;;7.80;99.90;;;;;;5095216;28;20528;-69
2021/04/17 00:34:25;;;;;;;6.43;4.23;;;7.90;99.90;;;;;;5095333;28;20510;-69
2021/04/17 00:36:51;;;;;;;8.63;3.90;;;7.90;99.90;;;;;;5095420;28;20802;-69
2021/04/17 00:39:17;;;;;;;6.10;4.00;;;7.90;99.90;;;;;;5095479;28;20415;-69
2021/04/17 00:41:42;;;;;;;6.07;4.33;;;7.70;99.90;;;;;;5095337;28;20236;-69
2021/04/17 00:44:08;;;;;;;6.17;3.83;;;7.60;99.90;;;;;;5095183;28;20195;-69
2021/04/17 00:46:33;;;;;;;6.47;3.90;;;7.70;99.90;;;;;;5095010;28;20176;-68
2021/04/17 00:49:02;;;;;;;3.87;3.50;;;7.60;99.90;;;;;;5095253;28;20666;-69
2021/04/17 00:51:27;;;;;;;6.03;3.93;;;7.40;99.90;;;;;;5093967;28;20193;-69
2021/04/17 00:53:53;;;;;;;7.87;4.27;;;7.40;99.90;;;;;;5094855;28;20422;-68
2021/04/17 00:56:20;;;;;;;5.47;3.40;;;7.40;99.90;;;;;;5095053;28;20174;-68
2021/04/17 00:58:46;;;;;;;6.57;4.25;;;7.40;99.90;;;;;;5094741;28;20164;-69
2021/04/17 01:01:12;;;;;;;8.33;3.83;;;7.40;99.90;;;;;;5094691;28;20172;-69
2021/04/17 01:03:55;;;;;;;7.50;3.90;;;7.30;99.90;;;;;;5094788;28;20435;-69
2021/04/17 01:06:48;;;;;;;6.50;3.42;;;7.10;99.90;;;;;;5095146;28;20444;-69
2021/04/17 01:09:24;;;;;;;5.40;3.90;;;7.20;99.90;;;;;;5095183;28;20627;-69
2021/04/17 01:12:14;;;;;;;7.88;5.28;;;7.20;99.90;;;;;;5094488;28;20284;-69
2021/04/17 01:14:42;;;;;;;7.78;4.13;;;7.20;99.90;;;;;;5084664;28;20195;-69
2021/04/17 01:17:11;;;;;;;5.18;4.15;;;7.20;99.90;;;;;;5094701;28;20175;-69
2021/04/17 01:19:40;;;;;;;7.90;3.95;;;7.10;99.90;;;;;;5094749;28;20166;-68
2021/04/17 01:22:10;;;;;;;8.20;4.00;;;7.00;99.90;;;;;;5094288;28;20168;-69
2021/04/17 01:24:38;;;;;;;8.43;4.25;;;6.90;99.90;;;;;;5094229;28;20281;-69
2021/04/17 01:27:06;;;;;;;6.70;3.65;;;7.10;99.90;;;;;;5094719;28;20171;-69
2021/04/17 01:29:32;;;;;;;6.57;4.00;;;6.90;99.90;;;;;;5094367;28;20176;-68
2021/04/17 01:32:01;;;;;;;7.63;3.97;;;6.80;99.90;;;;;;5094051;28;20230;-69
2021/04/17 01:34:27;;;;;;;6.47;3.90;;;6.90;99.90;;;;;;5094257;28;20520;-69
2021/04/17 01:36:54;;;;;;;7.13;4.78;;;6.90;99.90;;;;;;5093958;28;20170;-69
2021/04/17 01:39:24;;;;;;;8.85;3.63;;;6.90;99.90;;;;;;5093447;28;20168;-68
2021/04/17 01:41:54;;;;;;;6.85;3.97;;;7.10;99.90;;;;;;5094148;28;20258;-69
2021/04/17 01:44:22;;;;;;;12.48;4.15;;;7.00;99.90;;;;;;5093714;28;20656;-68
2021/04/17 01:46:53;;;;;;;5.13;3.58;;;7.00;99.90;;;;;;5093769;28;20283;-69
2021/04/17 01:49:20;;;;;;;5.43;3.95;;;6.90;99.90;;;;;;5094059;28;20153;-69
2021/04/17 01:51:47;;;;;;;9.70;4.20;;;6.80;99.90;;;;;;5093704;28;20321;-68
2021/04/17 01:54:18;;;;;;;4.75;3.95;;;6.90;99.90;;;;;;5093587;28;20666;-69
2021/04/17 01:56:46;;;;;;;4.78;3.60;;;7.00;99.90;;;;;;5093665;28;20589;-68
2021/04/17 01:59:15;;;;;;;5.72;3.63;;;6.90;99.90;;;;;;5093900;28;20191;-68
2021/04/17 02:01:41;;;;;;;6.03;4.18;;;6.80;99.90;;;;;;5093470;28;20259;-69
2021/04/17 02:04:08;;;;;;;5.15;3.47;;;6.80;99.90;;;;;;5093345;28;20197;-69
2021/04/17 02:06:34;;;;;;;9.40;4.53;;;6.80;99.90;;;;;;5093397;28;20228;-69
2021/04/17 02:09:00;;;;;;;6.47;3.60;;;6.80;99.90;;;;;;5093790;28;20197;-69
2021/04/17 02:11:26;;;;;;;6.07;3.92;;;6.70;99.90;;;;;;5093565;28;20564;-69
2021/04/17 02:13:51;;;;;;;6.17;3.90;;;6.70;99.90;;;;;;5094410;28;20242;-68
2021/04/17 02:16:23;;;;;;;7.33;4.10;;;6.60;99.90;;;;;;5093545;28;20171;-68
2021/04/17 02:19:00;;;;;;;7.82;4.03;;;6.90;99.90;;;;;;5093282;28;20182;-69
2021/04/17 02:21:35;;;;;;;14.38;5.18;;;6.80;99.90;;;;;;5093228;28;20536;-68
2021/04/17 02:24:02;;;;;;;7.22;4.03;;;6.90;99.90;;;;;;5093209;28;20190;-69
2021/04/17 02:26:29;;;;;;;6.90;4.43;;;6.90;99.90;;;;;;5093116;28;20185;-69
2021/04/17 02:28:54;;;;;;;10.15;4.07;;;6.80;99.90;;;;;;5093443;28;20187;-69
2021/04/17 02:31:20;;;;;;;5.77;3.70;;;6.70;99.90;;;;;;5093099;28;20184;-68
2021/04/17 02:33:46;;;;;;;5.03;4.00;;;6.40;99.90;;;;;;5093016;28;20474;-67
2021/04/17 02:36:11;;;;;;;6.70;5.17;;;6.50;99.90;;;;;;5093069;28;20224;-69
2021/04/17 02:38:37;;;;;;;6.60;3.70;;;6.40;99.90;;;;;;5093584;28;20172;-69
2021/04/17 02:41:02;;;;;;;4.70;3.90;;;6.30;99.90;;;;;;5093278;28;20171;-68
2021/04/17 02:43:28;;;;;;;6.17;3.83;;;6.10;99.90;;;;;;5092899;28;20195;-69
2021/04/17 02:45:53;;;;;;;6.40;4.17;;;6.10;99.90;;;;;;5093382;28;20648;-69
2021/04/17 02:48:19;;;;;;;7.40;4.40;;;6.20;99.90;;;;;;5093538;28;20236;-69
2021/04/17 02:50:44;;;;;;;7.00;3.43;;;6.20;99.90;;;;;;5093170;28;20236;-68
2021/04/17 02:53:10;;;;;;;7.23;3.67;;;6.20;99.90;;;;;;5092727;28;20183;-69
2021/04/17 02:55:36;;;;;;;6.83;3.90;;;6.30;99.90;;;;;;5093157;28;20167;-69
2021/04/17 02:58:01;;;;;;;6.03;4.30;;;6.40;99.90;;;;;;5092899;28;20166;-69
2021/04/17 03:00:27;;;;;;;8.37;4.33;;;6.20;99.90;;;;;;5092829;28;20509;-69
2021/04/17 03:02:52;;;;;;;6.17;3.97;;;6.20;99.90;;;;;;5092827;28;20659;-69
2021/04/17 03:05:19;;;;;;;7.00;3.43;;;6.10;99.90;;;;;;5092772;28;20578;-68
2021/04/17 03:07:45;;;;;;;4.32;3.38;;;5.90;99.90;;;;;;5092631;28;20186;-69
2021/04/17 03:10:11;;;;;;;12.07;3.67;;;6.00;99.90;;;;;;5092733;28;20186;-69
2021/04/17 03:12:38;;;;;;;4.50;3.45;;;6.00;99.90;;;;;;5092844;28;20195;-69
2021/04/17 03:15:05;;;;;;;8.75;3.95;;;5.80;99.90;;;;;;5092697;28;20168;-69
2021/04/17 03:17:31;;;;;;;8.85;3.83;;;5.70;99.90;;;;;;5092549;28;20232;-69
2021/04/17 03:19:56;;;;;;;7.28;3.85;;;5.80;99.90;;;;;;5092646;28;20195;-69
2021/04/17 03:22:22;;;;;;;6.13;3.60;;;5.90;99.90;;;;;;5092887;28;20167;-69
2021/04/17 03:24:48;;;;;;;11.30;3.77;;;5.80;99.90;;;;;;5092515;28;20195;-68
2021/04/17 03:27:13;;;;;;;6.90;3.17;;;5.70;99.90;;;;;;5092669;28;20640;-68
2021/04/17 03:29:39;;;;;;;8.37;3.73;;;5.80;99.90;;;;;;5092776;28;20176;-69
2021/04/17 03:32:05;;;;;;;5.60;3.60;;;5.80;99.90;;;;;;5092525;28;20222;-69
2021/04/17 03:34:30;;;;;;;4.80;3.80;;;5.70;99.90;;;;;;5092654;28;20715;-69
2021/04/17 03:36:56;;;;;;;6.73;3.40;;;5.60;99.90;;;;;;5092484;28;20199;-69
2021/04/17 03:39:21;;;;;;;6.00;3.47;;;5.70;99.90;;;;;;5092916;28;20214;-69
2021/04/17 03:41:47;;;;;;;7.53;3.50;;;5.60;99.90;;;;;;5092485;28;20183;-69
2021/04/17 03:44:13;;;;;;;4.70;3.20;;;5.50;99.90;;;;;;5092298;28;20278;-69
2021/04/17 03:46:39;;;;;;;5.20;3.10;;;5.40;99.90;;;;;;5092397;28;20412;-69
2021/04/17 03:49:04;;;;;;;6.47;4.53;;;5.60;99.90;;;;;;5092596;28;20201;-69
2021/04/17 03:51:30;;;;;;;5.37;2.83;;;5.40;99.90;;;;;;5092269;28;20203;-69
2021/04/17 03:53:56;;;;;;;4.60;3.30;;;5.40;99.90;;;;;;5092228;28;20188;-69
2021/04/17 03:56:22;;;;;;;4.47;2.87;;;5.50;99.90;;;;;;5092337;28;20164;-69
2021/04/17 03:58:47;;;;;;;5.67;4.03;;;5.30;99.90;;;;;;5092297;28;20207;-69
2021/04/17 04:01:13;;;;;;;6.17;3.77;;;5.30;99.90;;;;;;5092274;28;20532;-69
2021/04/17 04:03:39;;;;;;;5.77;3.40;;;5.30;99.90;;;;;;5094547;28;20198;-69
2021/04/17 04:06:04;;;;;;;4.10;2.77;;;5.40;99.90;;;;;;5095850;28;20284;-69
2021/04/17 04:08:30;;;;;;;5.43;3.60;;;5.30;99.90;;;;;;5095666;28;20187;-69
2021/04/17 04:10:56;;;;;;;4.87;3.17;;;5.30;99.90;;;;;;5095956;28;20286;-71
2021/04/17 04:13:22;;;;;;;7.03;3.27;;;5.40;99.90;;;;;;5095551;28;20195;-69
2021/04/17 04:15:47;;;;;;;5.53;3.47;;;5.30;99.90;;;;;;5095971;28;20409;-69
2021/04/17 04:18:13;;;;;;;8.77;3.90;;;5.30;99.90;;;;;;5095834;28;20536;-69
2021/04/17 04:20:38;;;;;;;5.30;2.77;;;5.10;99.90;;;;;;5095671;28;20172;-69
2021/04/17 04:23:04;;;;;;;4.67;3.27;;;5.00;99.90;;;;;;5095746;28;20548;-69
2021/04/17 04:25:30;;;;;;;5.93;3.07;;;4.80;99.90;;;;;;5095489;28;20176;-69
2021/04/17 04:27:56;;;;;;;6.83;3.30;;;5.00;99.90;;;;;;5094205;28;20207;-69
2021/04/17 04:30:23;;;;;;;5.50;3.60;;;4.90;99.90;;;;;;5095511;28;20258;-69
2021/04/17 04:32:49;;;;;;;7.35;3.20;;;4.90;99.90;;;;;;5095414;28;20287;-69
2021/04/17 04:35:15;;;;;;;4.30;3.20;;;5.00;99.90;;;;;;5095616;28;20167;-69
2021/04/17 04:37:40;;;;;;;5.70;3.20;;;5.00;99.90;;;;;;5095250;28;20215;-69
2021/04/17 04:40:07;;;;;;;5.23;2.80;;;4.80;99.90;;;;;;5095175;28;20182;-69
2021/04/17 04:42:33;;;;;;;6.13;3.65;;;5.10;99.90;;;;;;5094936;28;20174;-69
2021/04/17 04:45:03;;;;;;;5.93;2.70;;;5.10;99.90;;;;;;5095150;28;20172;-69
2021/04/17 04:47:29;;;;;;;4.68;2.85;;;4.90;99.90;;;;;;5095266;28;20209;-69
2021/04/17 04:49:54;;;;;;;7.00;3.37;;;4.90;99.90;;;;;;5094928;28;20179;-69
2021/04/17 04:52:20;;;;;;;6.73;3.40;;;4.80;99.90;;;;;;5094878;28;20203;-69
2021/04/17 04:54:45;;;;;;;4.60;3.20;;;5.00;99.90;;;;;;5094851;28;20191;-69
2021/04/17 04:57:11;;;;;;;4.60;3.10;;;5.10;99.90;;;;;;5094856;28;20163;-69
2021/04/17 04:59:36;;;;;;;3.93;3.17;;;5.10;99.90;;;;;;5095085;28;20180;-69
2021/04/17 05:02:03;;;;;;;4.07;2.87;;;5.10;99.90;;;;;;5095042;28;20172;-69
2021/04/17 05:04:28;;;;;;;5.15;3.45;;;5.00;99.90;;;;;;5094640;28;20205;-68
2021/04/17 05:06:54;;;;;;;8.60;4.47;;;5.00;99.90;;;;;;5094525;28;20183;-69
2021/04/17 05:09:19;;;;;;;8.93;3.80;;;4.90;99.90;;;;;;5095981;28;20384;-69
2021/04/17 05:11:45;;;;;;;5.83;3.30;;;5.00;99.90;;;;;;5095909;28;20191;-69
2021/04/17 05:14:11;;;;;;;4.50;4.10;;;5.00;99.90;;;;;;5093906;28;20207;-69
2021/04/17 05:16:36;;;;;;;5.37;3.50;;;5.10;99.90;;;;;;5094513;28;20513;-69
2021/04/17 05:19:02;;;;;;;5.93;4.00;;;5.00;99.90;;;;;;5094774;28;20648;-69
2021/04/17 05:21:28;;;;;;;6.83;3.50;;;5.20;99.90;;;;;;5094395;28;20168;-69
2021/04/17 05:23:54;;;;;;;6.50;3.33;;;5.20;99.90;;;;;;5094520;28;20564;-69
2021/04/17 05:26:20;;;;;;;4.68;3.55;;;5.00;99.90;;;;;;5094221;28;20258;-69
2021/04/17 05:28:45;;;;;;;4.40;3.60;;;4.80;99.90;;;;;;5095005;28;20573;-69
2021/04/17 05:31:11;;;;;;;7.73;3.43;;;4.90;99.90;;;;;;5094340;28;20191;-69
2021/04/17 05:33:37;;;;;;;4.00;3.23;;;4.90;99.90;;;;;;5094390;28;20233;-69
2021/04/17 05:36:03;;;;;;;6.20;3.90;;;4.90;99.90;;;;;;5094444;28;20171;-69
2021/04/17 05:38:28;;;;;;;9.15;4.30;;;4.80;99.90;;;;;;5094145;28;20191;-69
2021/04/17 05:40:54;;;;;;;6.47;4.60;;;5.00;99.90;;;;;;5094289;28;20648;-69
2021/04/17 05:43:19;;;;;;;11.30;3.60;;;5.30;99.90;;;;;;5094253;28;20555;-69
2021/04/17 05:45:45;;;;;;;4.90;3.50;;;5.40;99.90;;;;;;5094146;28;20214;-69
2021/04/17 05:48:11;;;;;;;6.80;3.87;;;5.40;99.90;;;;;;5094140;28;20195;-69
2021/04/17 05:50:36;;;;;;;5.10;4.00;;;5.30;99.90;;;;;;5093892;28;20164;-69
2021/04/17 05:53:02;;;;;;;5.27;4.13;;;5.40;99.90;;;;;;5093974;28;20187;-69
2021/04/17 05:55:27;;;;;;;8.43;3.50;;;5.10;99.90;;;;;;5094062;28;20632;-69
2021/04/17 05:57:53;;;;;;;6.20;3.80;;;5.20;99.90;;;;;;5094042;28;20167;-69
2021/04/17 06:00:19;;;;;;;8.20;4.37;;;5.20;99.90;;;;;;5093902;28;20648;-69
2021/04/17 06:02:45;;;;;;;7.38;4.15;;;5.40;99.90;;;;;;5093418;28;20179;-69
2021/04/17 06:05:10;;;;;;;6.43;4.53;;;5.60;99.90;;;;;;5093635;28;20659;-69
2021/04/17 06:07:36;;;;;;;23.03;9.70;;;5.70;99.90;;;;;;5093414;28;20187;-69
2021/04/17 06:10:03;;;;;;;5.00;4.50;;;5.80;99.90;;;;;;5093743;28;20410;-69
2021/04/17 06:12:28;;;;;;;8.82;3.97;;;5.70;99.90;;;;;;5093244;28;20179;-69
2021/04/17 06:14:55;;;;;;;5.30;3.90;;;5.40;99.90;;;;;;5093523;28;20191;-69
2021/04/17 06:17:20;;;;;;;5.97;4.07;;;5.40;99.90;;;;;;5093354;28;20167;-69
2021/04/17 06:19:46;;;;;;;6.03;3.93;;;5.50;99.90;;;;;;5093582;28;20176;-68
2021/04/17 06:22:11;;;;;;;6.70;3.80;;;5.70;99.90;;;;;;5093692;28;20174;-69
2021/04/17 06:24:37;;;;;;;7.80;4.50;;;5.70;99.90;;;;;;5093148;28;20284;-69
2021/04/17 06:27:02;;;;;;;7.43;4.80;;;5.70;99.90;;;;;;5093236;28;20185;-68
2021/04/17 06:29:28;;;;;;;8.47;3.93;;;5.90;99.90;;;;;;5093346;28;20540;-69
2021/04/17 06:31:53;;;;;;;4.77;3.90;;;6.20;99.90;;;;;;5093076;28;20538;-68
2021/04/17 06:34:19;;;;;;;5.30;4.40;;;6.30;99.90;;;;;;5092944;28;20213;-68
2021/04/17 06:36:44;;;;;;;5.90;3.93;;;6.30;99.90;;;;;;5093088;28;20167;-68
2021/04/17 06:39:10;;;;;;;6.43;3.30;;;6.60;99.90;;;;;;5091832;28;20191;-69
2021/04/17 06:41:40;;;;;;;6.83;3.97;;;6.60;99.90;;;;;;5093384;28;20182;-69
2021/04/17 06:44:06;;;;;;;9.95;4.38;;;6.50;99.90;;;;;;5093039;28;20191;-68
2021/04/17 06:46:33;;;;;;;5.97;3.90;;;6.60;99.90;;;;;;5092861;28;20677;-69
2021/04/17 06:49:00;;;;;;;5.05;4.00;;;6.70;99.90;;;;;;5093095;28;20224;-68
2021/04/17 06:51:27;;;;;;;6.45;4.15;;;6.70;99.90;;;;;;5092841;28;20250;-69
2021/04/17 06:53:53;;;;;;;6.00;3.40;;;6.70;99.90;;;;;;5092936;28;20196;-68
2021/04/17 06:56:22;;;;;;;6.07;3.60;;;6.60;99.90;;;;;;5093088;28;20170;-68
2021/04/17 06:58:48;;;;;;;6.03;3.33;;;6.90;99.90;;;;;;5092706;28;20396;-68
2021/04/17 07:01:13;;;;;;;7.97;4.20;;;7.00;99.90;;;;;;5092979;28;20178;-69
2021/04/17 07:03:39;;;;;;;6.00;2.83;;;7.10;99.90;;;;;;5092971;28;20421;-69
2021/04/17 07:06:04;;;;;;;4.87;3.23;;;7.00;99.90;;;;;;5092959;28;20171;-69
2021/04/17 07:08:30;;;;;;;7.20;4.00;;;7.10;99.90;;;;;;5092504;28;20188;-69
2021/04/17 07:10:58;;;;;;;8.00;3.77;;;7.50;99.90;;;;;;5092553;28;20206;-68
2021/04/17 07:13:23;;;;;;;6.32;3.30;;;7.70;99.90;;;;;;5092553;28;20175;-69
2021/04/17 07:15:49;;;;;;;6.60;3.00;;;7.60;99.90;;;;;;5092674;28;20217;-69
2021/04/17 07:18:26;;;;;;;8.07;3.70;;;7.60;99.90;;;;;;5092862;28;20167;-69
2021/04/17 07:21:14;;;;;;;7.57;3.53;;;7.80;99.90;;;;;;5092265;28;20167;-69
2021/04/17 07:23:42;;;;;;;8.07;4.03;;;7.80;99.90;;;;;;5092468;28;20183;-69
2021/04/17 07:26:12;;;;;;;6.60;3.75;;;8.00;99.90;;;;;;5091587;28;20182;-69
2021/04/17 07:28:55;;;;;;;7.70;3.75;;;8.00;99.90;;;;;;5092596;28;20171;-69
2021/04/17 07:31:22;;;;;;;5.47;3.55;;;8.30;99.90;;;;;;5092509;28;20245;-69
2021/04/17 07:33:48;;;;;;;6.55;3.72;;;8.30;99.90;;;;;;5091196;28;20613;-69
2021/04/17 07:36:17;;;;;;;9.33;4.00;;;8.40;99.90;;;;;;5092433;28;20172;-68
2021/04/17 07:38:45;;;;;;;4.67;4.00;;;8.60;99.90;;;;;;5094955;28;20660;-68
2021/04/17 07:41:16;;;;;;;4.55;2.88;;;8.80;99.90;;;;;;5096479;28;20773;-68
2021/04/17 07:43:59;;;;;;;6.90;3.60;;;8.80;99.90;;;;;;5095869;28;20194;-68
2021/04/17 07:46:31;;;;;;;5.70;2.97;;;8.80;99.90;;;;;;5095844;28;20906;-68
2021/04/17 07:49:18;;;;;;;6.23;3.60;;;8.90;99.90;;;;;;5095753;28;20172;-68
2021/04/17 07:52:09;;;;;;;6.20;3.17;;;9.00;99.90;;;;;;5096171;28;20818;-69
2021/04/17 07:54:34;;;;;;;4.10;2.33;;;9.20;99.90;;;;;;5095886;28;20435;-69
2021/04/17 07:57:08;;;;;;;6.57;3.00;;;9.30;99.90;;;;;;5095847;28;20402;-69
2021/04/17 07:59:35;;;;;;;4.40;2.80;;;9.20;99.90;;;;;;5096365;28;20179;-69
2021/04/17 08:02:01;;;;;;;6.93;3.30;;;9.40;99.90;;;;;;5096099;28;20413;-69
2021/04/17 08:04:28;;;;;;;6.50;2.37;;;9.30;99.90;;;;;;5095962;28;20970;-69
2021/04/17 08:06:56;;;;;;;8.33;3.07;;;9.30;99.90;;;;;;5096129;28;20552;-69
2021/04/17 08:09:23;;;;;;;8.33;2.70;;;9.60;99.90;;;;;;5095506;28;20387;-69
2021/04/17 08:11:52;;;;;;;15.83;6.73;;;9.90;99.90;;;;;;5095461;28;20463;-69
2021/04/17 08:14:19;;;;;;;3.10;1.97;;;9.90;99.90;;;;;;5095680;28;20432;-69
2021/04/17 08:16:46;;;;;;;3.60;2.50;;;9.90;99.90;;;;;;5095602;28;20410;-69
2021/04/17 08:19:12;;;;;;;5.20;2.47;;;9.60;99.90;;;;;;5095633;28;20412;-69
2021/04/17 08:21:38;;;;;;;6.20;2.70;;;9.50;99.90;;;;;;5095394;28;20416;-69
2021/04/17 08:24:05;;;;;;;7.20;2.37;;;9.60;99.90;;;;;;5095153;28;20437;-68
2021/04/17 08:26:33;;;;;;;6.03;2.70;;;9.60;99.90;;;;;;5095746;28;20421;-68
2021/04/17 08:28:59;;;;;;;6.90;2.37;;;9.70;99.90;;;;;;5095189;28;20409;-69
2021/04/17 08:31:37;;;;;;;4.47;2.53;;;9.70;99.90;;;;;;5095050;28;20461;-68
2021/04/17 08:34:08;;;;;;;4.53;2.30;;;9.50;99.90;;;;;;5094785;28;20429;-68
2021/04/17 08:36:36;;;;;;;4.80;2.50;;;9.70;99.90;;;;;;5095386;28;20167;-68
2021/04/17 08:39:04;;;;;;;12.77;3.33;;;10.10;99.90;;;;;;5095061;28;20541;-68
2021/04/17 08:41:41;;;;;;;5.33;2.80;;;10.50;99.90;;;;;;5095253;28;20719;-68
2021/04/17 08:44:40;;;;;;;6.57;3.13;;;10.90;99.90;;;;;;5094868;28;20474;-68
2021/04/17 08:47:08;;;;;;;13.70;3.40;;;11.00;99.90;;;;;;5051127;28;20500;-69
2021/04/17 08:49:37;;;;;;;4.40;2.83;;;11.10;99.90;;;;;;5093809;28;20496;-69
2021/04/17 08:52:10;;;;;;;5.63;3.30;;;10.90;99.90;;;;;;5094798;28;20460;-68
2021/04/17 08:54:37;;;;;;;6.70;3.03;;;11.30;99.90;;;;;;5094734;28;20417;-67
2021/04/17 08:57:11;;;;;;;8.73;3.70;;;11.50;99.90;;;;;;5094812;28;20437;-68
2021/04/17 08:59:38;;;;;;;6.60;3.53;;;11.10;99.90;;;;;;5096333;28;20850;-69
2021/04/17 09:02:10;;;;;;;6.33;3.17;;;10.60;99.90;;;;;;5094669;28;20492;-69
2021/04/17 09:05:06;;;;;;;6.70;3.43;;;11.40;99.90;;;;;;5093753;28;20429;-69
2021/04/17 09:07:37;;;;;;;4.30;3.00;;;11.50;99.90;;;;;;5093403;28;20429;-69
2021/04/17 09:10:31;;;;;;;8.77;3.33;;;11.30;99.90;;;;;;5094825;28;20393;-69
2021/04/17 09:13:20;;;;;;;4.10;2.87;;;11.80;99.90;;;;;;5094453;28;20892;-69
2021/04/17 09:15:55;;;;;;;5.13;3.43;;;11.20;99.90;;;;;;5094533;28;20383;-69
2021/04/17 09:18:36;;;;;;;4.53;2.70;;;11.80;99.90;;;;;;5094431;28;20388;-69
2021/04/17 09:21:22;;;;;;;4.73;2.80;;;10.90;99.90;;;;;;5094327;28;20761;-69
2021/04/17 09:23:51;;;;;;;8.37;4.13;;;11.10;99.90;;;;;;5094104;28;20944;-70
2021/04/17 09:26:29;;;;;;;5.43;3.03;;;11.40;99.90;;;;;;5094409;28;20417;-69
2021/04/17 09:28:55;;;;;;;4.53;3.50;;;11.60;99.90;;;;;;5093953;28;20433;-68
2021/04/17 09:31:21;;;;;;;6.77;3.20;;;11.40;99.90;;;;;;5092303;28;20508;-69
2021/04/17 09:33:47;;;;;;;4.20;3.70;;;11.50;99.90;;;;;;5093984;28;20937;-69
2021/04/17 09:36:20;;;;;;;6.60;3.53;;;11.40;99.90;;;;;;5094087;28;20419;-69
2021/04/17 09:38:46;;;;;;;4.23;3.50;;;11.60;99.90;;;;;;5092633;28;20419;-70
2021/04/17 09:41:11;;;;;;;8.47;3.50;;;11.90;99.90;;;;;;5093932;28;20393;-69
2021/04/17 09:43:37;;;;;;;8.53;3.43;;;12.00;99.90;;;;;;5093581;28;20267;-69
2021/04/17 09:46:05;;;;;;;3.90;2.67;;;11.90;99.90;;;;;;5093595;28;20172;-70
2021/04/17 09:48:44;;;;;;;7.17;3.00;;;12.00;99.90;;;;;;5093924;28;20175;-70
2021/04/17 09:51:22;;;;;;;7.23;3.83;;;11.90;99.90;;;;;;5093405;28;20449;-70
2021/04/17 09:53:50;;;;;;;6.40;3.30;;;12.00;99.90;;;;;;5093516;28;20425;-71
2021/04/17 09:56:30;;;;;;;6.03;2.50;;;12.30;99.90;;;;;;5092839;28;20489;-70
2021/04/17 09:58:58;;;;;;;6.37;3.40;;;12.10;99.90;;;;;;5093642;28;20796;-70
2021/04/17 10:01:24;;;;;;;7.03;3.00;;;12.50;99.90;;;;;;5093044;28;20416;-70
2021/04/17 10:03:57;;;;;;;4.57;2.60;;;12.50;99.90;;;;;;5093686;28;20504;-70
2021/04/17 10:06:36;;;;;;;8.73;3.20;;;11.90;99.90;;;;;;5093679;28;20393;-70
2021/04/17 10:09:08;;;;;;;6.57;3.20;;;12.30;99.90;;;;;;5093575;28;20812;-70
2021/04/17 10:11:35;;;;;;;7.40;3.20;;;12.20;99.90;;;;;;5093375;28;20802;-69
2021/04/17 10:14:01;;;;;;;4.97;3.40;;;12.30;99.90;;;;;;5093065;28;20433;-70
2021/04/17 10:16:35;;;;;;;5.37;3.33;;;12.80;99.90;;;;;;5093558;28;20484;-69
2021/04/17 10:19:03;;;;;;;5.30;3.03;;;12.40;99.90;;;;;;5094009;28;20473;-69
2021/04/17 10:21:33;;;;;;;7.67;3.20;;;12.90;99.90;;;;;;5093160;28;20398;-70
2021/04/17 10:24:25;;;;;;;3.33;2.90;;;12.60;99.90;;;;;;5093122;28;20508;-69
2021/04/17 10:27:05;;;;;;;8.50;2.90;;;12.40;99.90;;;;;;5093354;28;20787;-70
2021/04/17 10:29:36;;;;;;;7.23;3.13;;;12.40;99.90;;;;;;5093359;28;20394;-70
2021/04/17 10:32:09;;;;;;;5.57;3.40;;;12.70;99.90;;;;;;5093192;28;20448;-70
2021/04/17 10:34:35;;;;;;;6.93;3.10;;;12.50;99.90;;;;;;5093059;28;20863;-70
2021/04/17 10:37:23;;;;;;;5.57;2.30;;;13.00;99.90;;;;;;5092941;28;20481;-70
2021/04/17 10:40:01;;;;;;;4.23;2.53;;;13.00;99.90;;;;;;5092812;28;20421;-70
2021/04/17 10:42:51;;;;;;;6.80;2.63;;;13.20;99.90;;;;;;5092827;28;20444;-70
2021/04/17 10:45:21;;;;;;;6.80;2.90;;;13.30;99.90;;;;;;5093235;28;20382;-69
2021/04/17 10:47:58;;;;;;;9.73;3.60;;;13.40;99.90;;;;;;5092800;28;20480;-70
2021/04/17 10:50:25;;;;;;;3.97;2.27;;;13.20;99.90;;;;;;5092895;28;20797;-70
2021/04/17 10:53:21;;;;;;;5.43;2.67;;;13.80;99.90;;;;;;5092993;28;20518;-68
2021/04/17 10:55:49;;;;;;;7.23;2.77;;;13.80;99.90;;;;;;5091014;28;20428;-69
2021/04/17 10:58:30;;;;;;;9.37;2.90;;;14.30;99.90;;;;;;5092801;28;20457;-69
2021/04/17 11:01:21;;;;;;;4.80;2.27;;;14.40;99.90;;;;;;5093018;28;20382;-69
2021/04/17 11:03:52;;;;;;;4.57;2.57;;;14.00;99.90;;;;;;5092619;28;20425;-70
2021/04/17 11:06:32;;;;;;;6.00;2.53;;;13.80;99.90;;;;;;5092426;28;20912;-69
2021/04/17 11:09:10;;;;;;;7.50;3.83;;;14.10;99.90;;;;;;5092521;28;20864;-70
2021/04/17 11:11:37;;;;;;;5.17;2.80;;;14.50;99.90;;;;;;5092817;28;20441;-69
2021/04/17 11:14:05;;;;;;;6.90;2.73;;;14.60;99.90;;;;;;5096182;28;20475;-70
2021/04/17 11:16:36;;;;;;;8.30;2.90;;;14.90;99.90;;;;;;5096882;28;20414;-69
2021/04/17 11:19:02;;;;;;;6.40;2.53;;;14.80;99.90;;;;;;5095189;28;20781;-69
2021/04/17 11:21:27;;;;;;;4.67;3.07;;;14.90;99.90;;;;;;5095209;28;20423;-70
2021/04/17 11:23:59;;;;;;;3.73;2.17;;;14.80;99.90;;;;;;5096871;28;20750;-69
2021/04/17 11:26:27;;;;;;;4.87;2.53;;;14.80;99.90;;;;;;5097291;28;20164;-70
2021/04/17 11:28:58;;;;;;;5.27;2.70;;;14.40;99.90;;;;;;5096619;28;20422;-69
2021/04/17 11:31:34;;;;;;;6.63;3.80;;;13.90;99.90;;;;;;5096504;28;20567;-69
2021/04/17 11:34:04;;;;;;;7.67;2.87;;;14.50;99.90;;;;;;5096544;28;20790;-69
2021/04/17 11:36:31;;;;;;;4.80;2.60;;;14.30;99.90;;;;;;5096549;28;20775;-69
2021/04/17 11:38:58;;;;;;;5.40;2.67;;;13.80;99.90;;;;;;5096657;28;20406;-69
2021/04/17 11:41:24;;;;;;;4.20;2.20;;;14.10;99.90;;;;;;5096109;28;20448;-70
2021/04/17 11:43:51;;;;;;;5.70;2.77;;;13.80;99.90;;;;;;5096003;28;20423;-69
2021/04/17 11:46:17;;;;;;;5.10;2.23;;;14.40;99.90;;;;;;5096283;28;20407;-70
2021/04/17 11:48:45;;;;;;;5.73;2.73;;;13.90;99.90;;;;;;5096136;28;20446;-69
2021/04/17 11:51:11;;;;;;;2.80;2.10;;;14.20;99.90;;;;;;5096249;28;20453;-69
2021/04/17 11:53:38;;;;;;;3.60;2.40;;;14.20;99.90;;;;;;5095933;28;20432;-69
2021/04/17 11:56:04;;;;;;;6.80;3.17;;;14.30;99.90;;;;;;5094635;28;20402;-70
2021/04/17 11:58:30;;;;;;;7.87;2.80;;;14.40;99.90;;;;;;5095977;28;20406;-70
2021/04/17 12:00:56;;;;;;;5.93;2.30;;;14.10;99.90;;;;;;5095906;28;20401;-70
2021/04/17 12:03:22;;;;;;;5.27;2.63;;;14.70;99.90;;;;;;5095397;28;20824;-70
2021/04/17 12:05:53;;;;;;;3.73;2.77;;;14.40;99.90;;;;;;5095622;28;20508;-70
2021/04/17 12:08:19;;;;;;;5.27;2.63;;;14.60;99.90;;;;;;5095540;28;20422;-69
2021/04/17 12:10:45;;;;;;;7.03;2.57;;;14.70;99.90;;;;;;5095644;28;20423;-70
2021/04/17 12:13:11;;;;;;;4.50;2.90;;;14.70;99.90;;;;;;5095321;28;20455;-70
2021/04/17 12:15:37;;;;;;;6.40;3.43;;;14.50;99.90;;;;;;5095784;28;20418;-70
2021/04/17 12:18:03;;;;;;;4.13;2.83;;;14.70;99.90;;;;;;5096006;28;20457;-69
2021/04/17 12:20:29;;;;;;;3.73;2.87;;;14.10;99.90;;;;;;5095574;28;20498;-69
2021/04/17 12:22:55;;;;;;;5.57;3.50;;;14.20;99.90;;;;;;5095773;28;20667;-69
2021/04/17 12:25:22;;;;;;;6.77;3.30;;;13.80;99.90;;;;;;5095512;28;20183;-69
2021/04/17 12:27:47;;;;;;;4.03;2.70;;;14.10;99.90;;;;;;5095539;28;20541;-69
2021/04/17 12:30:13;;;;;;;5.67;2.80;;;14.10;99.90;;;;;;5095082;28;20428;-69
2021/04/17 12:32:39;;;;;;;6.63;3.03;;;13.70;99.90;;;;;;5095380;28;20281;-69
2021/04/17 12:35:06;;;;;;;5.10;2.70;;;13.60;99.90;;;;;;5098937;28;20444;-69
2021/04/17 12:37:33;;;;;;;6.90;2.57;;;13.40;99.90;;;;;;5095996;28;20237;-69
2021/04/17 12:39:58;;;;;;;5.60;3.20;;;13.70;99.90;;;;;;5095375;28;20402;-69
2021/04/17 12:42:24;;;;;;;8.03;2.70;;;13.60;99.90;;;;;;5095436;28;20418;-69
2021/04/17 12:44:49;;;;;;;4.27;2.23;;;13.60;99.90;;;;;;5095304;28;20198;-69
2021/04/17 12:47:15;;;;;;;8.97;2.83;;;12.80;99.90;;;;;;5095018;28;20167;-69
2021/04/17 12:49:41;;;;;;;7.47;3.80;;;13.10;99.90;;;;;;5094835;28;20203;-70
2021/04/17 12:52:06;;;;;;;4.13;3.40;;;13.40;99.90;;;;;;5094686;28;20292;-69
2021/04/17 12:54:33;;;;;;;7.47;3.60;;;13.20;99.90;;;;;;5093655;28;20461;-69
2021/04/17 12:56:58;;;;;;;5.20;2.83;;;13.10;99.90;;;;;;5094898;28;20510;-69
2021/04/17 12:59:24;;;;;;;5.47;3.13;;;13.30;99.90;;;;;;5094952;28;20414;-69
2021/04/17 13:01:50;;;;;;;4.03;2.83;;;13.60;99.90;;;;;;5094925;28;20709;-69